Главная страница
METAR-TAF:

METAR-TAF

Аэропорты :

Бермудские острова, Бермуды

широта: 32-22N, долгота: 064-41W, высота над уровнем моря: 6 м

Текущие метеонаблюдения

Эта сводка был подготовлена 1 час и 8 минут назад, в 06:55 UTC
Ветер 14 Узел от западный
Температура 19°C
Влажность 52%
Давление 1014 hPa
Видимость 10 км и более
небольшая облачность на высоте 4000 фута
Рассеянная облачность на высоте 7000 фута

METAR: TXKF 140655Z 27014KT 9999 FEW040 BKN070 19/09 Q1014

Время: 04:03 (08:03 UTC)

Прогноз

Эта сводка был подготовлена 2 часа и 32 минут назад, в 05:31 UTC
Прогноз действительный с 14-го 06 UTC до 15-го 06 UTC
Ветер 18 Узел от западный-юго-западный
Видимость 10 км и более
Отдельные облака на высоте 3500 фута
Рассеянная облачность на высоте 7000 фута

TAF: TXKF 140531Z 1406/1506 25018KT 9999 SCT035 BKN070

Метеонаблюдения и прогнозы для более 4000 аэропортов (сводки METAR и TAF).

Имеющиеся станции представлены на карте желтыми и красными точками.

Чтобы увидеть название станции, наведите на нее мышь.

Затем щелкните, чтобы увидеть метеонаблюдения и метеопрогнозы.

Управление картой: чтобы увеличить масштаб, щелкните зеленые кнопки с черным крестиком; чтобы уменьшить масштаб, щелкните зеленую кнопку с тире; для просмотра соседних карт щелкайте зеленые стрелки.


METAR-TAF: